Terminal Aerodrome Forecast
Issued by NWS Sterling, VA

Current Version | Previous Version | Graphics & Text | Print | Product List | Glossary On
Versions: 1 2 3 4 5 6 7 8 9 10 11 12 13 14 15 16 17 18 19 20 21 22 23
000
FTUS41 KLWX 271500 AAA
TAFDCA
TAF AMD
KDCA 271514Z 2715/2812 24007KT P6SM SCT050 BKN130
     FM271800 21012KT P6SM VCTS BKN050CB BKN130
     FM272300 20012KT 5SM SHRA VCTS BKN050CB BKN130
     FM280500 21006KT P6SM SCT050 SCT130=

USA.gov is the U.S. government's official web portal to all federal, state and local government web resources and services.